Terminal Aerodrome Forecast
Issued by NWS Portland, OR

Home | Current Version | Previous Version | Text Only | Print | Product List | Glossary On
Versions: 1 2 3 4 5 6 7 8 9 10 11 12 13 14 15 16 17 18 19 20 21 22 23 24 25 26 27 28 29 30 31 32
000
FTUS46 KPQR 251457 AAA
TAFTTD
TAF AMD
KTTD 251457Z 2515/2612 25003KT P6SM -SHRA SCT006 SCT020 BKN040
      TEMPO 2515/2517 BKN006 BKN020
     FM251900 27008KT P6SM -SHRA BKN035 BKN050
     FM260300 27003KT P6SM SCT035 BKN070
     FM260900 VRB03KT P6SM BKN150=

USA.gov is the U.S. government's official web portal to all federal, state and local government web resources and services.